EGHI/SOU METAR and TAF weather

Enter ICAO airport designator
Station Type Date Time Source
EGHI METAR 2020/02/16 19:50 UTC NOAA

EGHI 161950Z 23016KT 200V260 9999 SCT042 09/02 Q1002


Station Type Date Time Source
EGHI Decoded METAR 2020/02/16 19:50 UTC NOAA

Southampton / Weather Centre, United Kingdom (EGHI) 50-54N 001-24W 0M
Feb 16, 2020 - 02:50 PM EST / 2020.02.16 1950 UTC
Wind: from the SW (230 degrees) at 18 MPH (16 KT) (direction variable):0
Visibility: greater than 7 mile(s):0
Sky conditions: partly cloudy
Temperature: 48 F (9 C)
Dew Point: 35 F (2 C)
Relative Humidity: 61%
Pressure (altimeter): 29.59 in. Hg (1002 hPa)
ob: EGHI 161950Z 23016KT 200V260 9999 SCT042 09/02 Q1002
cycle: 20

Station Type Date Time Source
EGHI TAF 2016/03/02 12:00 UTC NOAA

TAF EGHI 021104Z 0212/0221 28015G25KT 9999 SCT020
TEMPO 0212/0221 29020G35KT PROB30
TEMPO 0212/0213 4000 SHRA BKN012CB
TEMPO 0218/0221 BKN014

Example: see airport list